createdAt,value
2017-12-30T00:00:29.886Z,92.60
2017-12-30T00:02:57.813Z,92.60
2017-12-30T00:05:25.481Z,92.70
2017-12-30T00:07:53.130Z,92.50
2017-12-30T00:10:20.767Z,92.50
2017-12-30T00:12:48.419Z,92.70
2017-12-30T00:15:16.063Z,92.60
2017-12-30T00:17:43.746Z,92.60
2017-12-30T00:20:11.404Z,92.70
2017-12-30T00:22:39.098Z,92.90
2017-12-30T00:25:06.738Z,92.90
2017-12-30T00:27:34.393Z,93.00
2017-12-30T00:30:02.020Z,93.20
2017-12-30T00:32:29.739Z,93.30
2017-12-30T00:34:57.352Z,93.10
2017-12-30T00:37:25.734Z,93.20
2017-12-30T00:39:54.168Z,93.10
2017-12-30T00:42:21.834Z,93.10
2017-12-30T00:44:49.448Z,93.20
2017-12-30T00:47:17.817Z,93.50
2017-12-30T00:49:45.468Z,93.40
2017-12-30T00:52:13.125Z,93.60
2017-12-30T00:54:40.720Z,93.80
2017-12-30T00:57:08.394Z,93.80
2017-12-30T00:59:36.778Z,93.70
2017-12-30T01:02:05.512Z,93.50
2017-12-30T01:04:33.121Z,93.50
2017-12-30T01:07:00.751Z,93.70
2017-12-30T01:09:28.378Z,94.00
2017-12-30T01:11:56.004Z,93.80
2017-12-30T01:14:23.661Z,93.50
2017-12-30T01:16:51.260Z,93.40
2017-12-30T01:19:19.675Z,94.00
2017-12-30T01:21:47.302Z,93.80
2017-12-30T01:24:15.234Z,93.60
2017-12-30T01:26:42.890Z,93.40
2017-12-30T01:29:10.531Z,93.20
2017-12-30T01:31:38.911Z,93.80
2017-12-30T01:34:07.318Z,93.70
2017-12-30T01:36:34.958Z,93.70
2017-12-30T01:39:03.364Z,94.00
2017-12-30T01:41:31.062Z,93.90
2017-12-30T01:43:58.651Z,93.80
2017-12-30T01:46:26.274Z,93.60
2017-12-30T01:49:03.861Z,93.40
2017-12-30T01:51:31.522Z,93.10
2017-12-30T01:53:59.217Z,93.20
2017-12-30T01:56:26.824Z,92.70
2017-12-30T01:58:54.735Z,92.90
2017-12-30T02:01:22.361Z,93.00
2017-12-30T02:03:50.765Z,93.20
2017-12-30T02:06:19.292Z,92.90
2017-12-30T02:08:46.915Z,92.90
2017-12-30T02:11:15.316Z,92.70
2017-12-30T02:13:42.978Z,92.70
2017-12-30T02:16:10.605Z,92.70
2017-12-30T02:18:38.324Z,92.60
2017-12-30T02:21:05.999Z,92.30
2017-12-30T02:23:33.629Z,92.10
2017-12-30T02:26:02.025Z,91.70
2017-12-30T02:28:29.623Z,91.60
2017-12-30T02:30:57.227Z,91.40
2017-12-30T02:33:24.856Z,91.30
2017-12-30T02:35:52.711Z,91.10
2017-12-30T02:38:20.297Z,91.30
2017-12-30T02:40:47.982Z,91.20
2017-12-30T02:43:15.682Z,90.90
2017-12-30T02:45:44.223Z,91.20
2017-12-30T02:48:11.869Z,91.10
2017-12-30T02:50:39.477Z,91.00
2017-12-30T02:53:07.074Z,91.10
2017-12-30T02:55:34.728Z,90.70
2017-12-30T02:58:03.084Z,90.80
2017-12-30T03:00:30.706Z,90.80
2017-12-30T03:02:59.673Z,90.50
2017-12-30T03:05:28.064Z,90.50
2017-12-30T03:07:56.465Z,90.40
2017-12-30T03:10:24.061Z,90.40
2017-12-30T03:12:51.674Z,90.50
2017-12-30T03:15:20.149Z,90.40
2017-12-30T03:17:48.579Z,90.60
2017-12-30T03:20:16.221Z,90.60
2017-12-30T03:22:44.625Z,90.80
2017-12-30T03:25:12.262Z,90.80
2017-12-30T03:27:40.665Z,90.20
2017-12-30T03:30:08.276Z,90.20
2017-12-30T03:32:35.892Z,90.40
2017-12-30T03:35:03.547Z,90.30
2017-12-30T03:37:31.942Z,90.20
2017-12-30T03:39:59.604Z,90.20
2017-12-30T03:42:28.018Z,90.10
2017-12-30T03:44:55.663Z,90.10
2017-12-30T03:47:23.305Z,90.20
2017-12-30T03:49:50.946Z,90.20
2017-12-30T03:52:18.583Z,90.50
2017-12-30T03:54:46.203Z,90.20
2017-12-30T03:57:13.922Z,90.20
2017-12-30T03:59:41.553Z,90.40
2017-12-30T04:02:09.939Z,90.00
2017-12-30T04:04:37.584Z,90.00
2017-12-30T04:07:05.242Z,90.10
2017-12-30T04:09:32.957Z,90.20
2017-12-30T04:12:00.563Z,90.20
2017-12-30T04:14:28.237Z,89.90
2017-12-30T04:16:57.339Z,90.50
2017-12-30T04:19:25.734Z,90.40
2017-12-30T04:21:54.280Z,90.50
2017-12-30T04:24:21.899Z,90.50
2017-12-30T04:26:50.255Z,90.20
2017-12-30T04:29:17.901Z,90.20
2017-12-30T04:31:45.507Z,90.10
2017-12-30T04:34:13.176Z,90.10
2017-12-30T04:36:40.802Z,90.20
2017-12-30T04:39:08.452Z,90.40
2017-12-30T04:41:37.018Z,90.30
2017-12-30T04:44:04.784Z,90.30
2017-12-30T04:46:32.461Z,90.80
2017-12-30T04:49:00.043Z,90.90
2017-12-30T04:51:27.689Z,91.20
2017-12-30T04:53:55.683Z,91.00
2017-12-30T04:56:23.302Z,91.00
2017-12-30T04:58:50.905Z,91.20
2017-12-30T05:01:18.705Z,90.60
2017-12-30T05:03:46.398Z,90.60
2017-12-30T05:06:14.952Z,90.60
2017-12-30T05:08:42.639Z,90.60
2017-12-30T05:11:10.306Z,90.60
2017-12-30T05:13:37.999Z,90.40
2017-12-30T05:16:06.376Z,91.20
2017-12-30T05:18:34.763Z,90.80
2017-12-30T05:21:02.364Z,90.70
2017-12-30T05:23:30.017Z,91.00
2017-12-30T05:25:58.426Z,91.00
2017-12-30T05:28:26.103Z,90.90
2017-12-30T05:30:53.716Z,90.80
2017-12-30T05:33:22.093Z,90.70
2017-12-30T05:35:49.757Z,90.70
2017-12-30T05:38:17.458Z,90.80
2017-12-30T05:40:45.072Z,91.30
2017-12-30T05:43:12.716Z,90.90
2017-12-30T05:45:40.320Z,91.60
2017-12-30T05:48:08.133Z,91.40
2017-12-30T05:50:35.742Z,90.90
2017-12-30T05:53:03.410Z,90.80
2017-12-30T05:55:31.093Z,90.90
2017-12-30T05:57:59.552Z,90.80
2017-12-30T06:00:27.258Z,90.90
2017-12-30T06:02:55.705Z,90.80
2017-12-30T06:05:23.357Z,90.70
2017-12-30T06:07:50.975Z,90.70
2017-12-30T06:10:19.373Z,90.80
2017-12-30T06:12:46.981Z,90.80
2017-12-30T06:15:14.586Z,90.80
2017-12-30T06:17:42.219Z,90.60
2017-12-30T06:20:09.860Z,90.60
2017-12-30T06:22:37.522Z,90.80
2017-12-30T06:25:05.190Z,90.90
2017-12-30T06:27:32.816Z,90.90
2017-12-30T06:30:00.428Z,91.00
2017-12-30T06:32:28.060Z,91.00
2017-12-30T06:34:56.457Z,91.00
2017-12-30T06:37:24.097Z,91.00
2017-12-30T06:39:52.502Z,91.20
2017-12-30T06:42:20.878Z,91.20
2017-12-30T06:44:49.257Z,91.30
2017-12-30T06:47:17.687Z,91.30
2017-12-30T06:49:45.327Z,91.30
2017-12-30T06:52:12.984Z,91.10
2017-12-30T06:54:41.369Z,91.40
2017-12-30T06:57:08.985Z,91.30
2017-12-30T06:59:36.946Z,91.50
2017-12-30T07:02:04.540Z,91.50
2017-12-30T07:04:32.147Z,91.60
2017-12-30T07:06:59.814Z,91.50
2017-12-30T07:09:27.767Z,91.60
2017-12-30T07:11:56.132Z,91.60
2017-12-30T07:14:23.779Z,91.60
2017-12-30T07:16:51.412Z,91.80
2017-12-30T07:19:19.036Z,91.80
2017-12-30T07:21:46.663Z,92.00
2017-12-30T07:24:14.267Z,91.90
2017-12-30T07:26:42.681Z,92.00
2017-12-30T07:29:10.496Z,92.00
2017-12-30T07:31:38.119Z,92.00
2017-12-30T07:34:05.755Z,92.00
2017-12-30T07:36:34.196Z,92.30
2017-12-30T07:39:01.832Z,92.10
2017-12-30T07:41:29.506Z,92.20
2017-12-30T07:43:57.129Z,92.30
2017-12-30T07:46:24.842Z,92.40
2017-12-30T07:48:52.520Z,92.40
2017-12-30T07:51:20.193Z,92.40
2017-12-30T07:53:48.036Z,92.50
2017-12-30T07:56:16.446Z,92.60
2017-12-30T07:58:44.072Z,92.60
2017-12-30T08:01:13.570Z,92.90
2017-12-30T08:03:42.024Z,92.80
2017-12-30T08:06:09.669Z,92.80
2017-12-30T08:08:37.312Z,92.90
2017-12-30T08:11:05.996Z,93.10
2017-12-30T08:13:34.380Z,93.10
2017-12-30T08:16:02.732Z,93.20
2017-12-30T08:18:30.378Z,93.20
2017-12-30T08:20:58.054Z,93.40
2017-12-30T08:23:25.721Z,93.20
2017-12-30T08:25:53.348Z,93.30
2017-12-30T08:28:20.992Z,93.20
2017-12-30T08:30:49.378Z,93.30
2017-12-30T08:33:17.737Z,93.20
2017-12-30T08:35:45.363Z,93.20
2017-12-30T08:38:12.972Z,93.20
2017-12-30T08:40:40.590Z,93.20
2017-12-30T08:43:08.254Z,93.10
2017-12-30T08:45:35.947Z,93.30
2017-12-30T08:48:03.554Z,93.20
2017-12-30T08:50:31.929Z,93.60
2017-12-30T08:52:59.572Z,93.20
2017-12-30T08:55:27.170Z,93.50
2017-12-30T08:57:55.548Z,93.40
2017-12-30T09:00:23.967Z,93.40
2017-12-30T09:02:51.556Z,93.40
2017-12-30T09:05:19.190Z,93.50
2017-12-30T09:07:46.872Z,93.30
2017-12-30T09:10:14.580Z,93.30
2017-12-30T09:12:42.246Z,93.30
2017-12-30T09:15:09.859Z,93.30
2017-12-30T09:17:37.466Z,93.40
2017-12-30T09:20:05.902Z,93.50
2017-12-30T09:22:33.502Z,93.50
2017-12-30T09:25:01.153Z,93.40
2017-12-30T09:27:28.786Z,93.40
2017-12-30T09:29:57.196Z,93.30
2017-12-30T09:32:24.881Z,93.30
2017-12-30T09:34:52.530Z,93.60
2017-12-30T09:37:20.318Z,93.50
2017-12-30T09:39:47.983Z,93.30
2017-12-30T09:42:15.584Z,93.50
2017-12-30T09:44:43.224Z,93.60
2017-12-30T09:47:10.815Z,93.10
2017-12-30T09:49:38.467Z,93.10
2017-12-30T09:52:06.433Z,93.40
2017-12-30T09:54:34.176Z,93.10
2017-12-30T09:57:02.210Z,93.40
2017-12-30T09:59:29.826Z,93.20
2017-12-30T10:01:57.485Z,93.00
2017-12-30T10:04:25.102Z,93.10
2017-12-30T10:06:52.708Z,93.00
2017-12-30T10:09:20.345Z,93.00
2017-12-30T10:11:48.723Z,93.00
2017-12-30T10:14:16.369Z,93.00
2017-12-30T10:16:43.961Z,92.90
2017-12-30T10:19:11.645Z,93.10
2017-12-30T10:21:40.062Z,92.90
2017-12-30T10:24:07.708Z,92.80
2017-12-30T10:26:35.329Z,92.80
2017-12-30T10:29:03.753Z,92.70
2017-12-30T10:31:31.363Z,92.70
2017-12-30T10:33:59.010Z,92.60
2017-12-30T10:36:26.646Z,92.50
2017-12-30T10:38:55.052Z,92.50
2017-12-30T10:41:22.657Z,92.50
2017-12-30T10:43:50.293Z,92.50
2017-12-30T10:46:17.893Z,92.30
2017-12-30T10:48:45.529Z,92.20
2017-12-30T10:51:13.149Z,92.10
2017-12-30T10:53:40.804Z,92.80
2017-12-30T10:56:08.818Z,92.20
2017-12-30T10:58:36.662Z,92.10
2017-12-30T11:01:05.024Z,92.10
2017-12-30T11:03:33.449Z,91.50
2017-12-30T11:06:01.993Z,91.60
2017-12-30T11:08:29.586Z,91.60
2017-12-30T11:10:58.290Z,91.60
2017-12-30T11:13:25.908Z,91.60
2017-12-30T11:15:53.592Z,91.70
2017-12-30T11:18:21.468Z,91.60
2017-12-30T11:20:49.885Z,91.50
2017-12-30T11:23:17.561Z,91.50
2017-12-30T11:25:45.190Z,91.40
2017-12-30T11:28:12.901Z,91.30
2017-12-30T11:30:40.561Z,91.60
2017-12-30T11:33:08.185Z,91.30
2017-12-30T11:35:35.858Z,91.30
2017-12-30T11:38:04.239Z,91.30
2017-12-30T11:40:31.845Z,91.30
2017-12-30T11:42:59.505Z,91.40
2017-12-30T11:45:27.259Z,91.40
2017-12-30T11:47:55.746Z,91.20
2017-12-30T11:50:23.423Z,91.20
2017-12-30T11:52:51.368Z,91.20
2017-12-30T11:55:19.829Z,91.40
2017-12-30T11:57:47.435Z,91.40
2017-12-30T12:00:15.864Z,91.30
2017-12-30T12:02:43.468Z,91.20
2017-12-30T12:05:12.387Z,91.30
2017-12-30T12:07:40.013Z,91.30
2017-12-30T12:10:07.630Z,91.20
2017-12-30T12:12:35.259Z,91.10
2017-12-30T12:15:04.210Z,91.10
2017-12-30T12:17:31.926Z,91.10
2017-12-30T12:20:00.559Z,91.30
2017-12-30T12:22:28.286Z,91.30
2017-12-30T12:24:56.679Z,91.40
2017-12-30T12:27:25.112Z,91.30
2017-12-30T12:29:52.762Z,91.60
2017-12-30T12:32:20.378Z,91.20
2017-12-30T12:34:48.035Z,91.10
2017-12-30T12:37:15.739Z,91.00
2017-12-30T12:39:44.101Z,91.30
2017-12-30T12:42:12.505Z,91.40
2017-12-30T12:44:40.149Z,91.30
2017-12-30T12:47:08.526Z,91.70
2017-12-30T12:49:36.990Z,91.60
2017-12-30T12:52:05.165Z,91.60
2017-12-30T12:54:32.777Z,91.80
2017-12-30T12:57:01.147Z,91.70
2017-12-30T12:59:29.559Z,92.00
2017-12-30T13:01:57.208Z,92.00
2017-12-30T13:04:24.883Z,92.00
2017-12-30T13:06:52.493Z,92.10
2017-12-30T13:09:20.129Z,92.20
2017-12-30T13:11:47.772Z,92.00
2017-12-30T13:14:16.186Z,91.70
2017-12-30T13:16:43.907Z,91.70
2017-12-30T13:19:11.602Z,91.50
2017-12-30T13:21:39.961Z,91.60
2017-12-30T13:24:08.507Z,91.40
2017-12-30T13:26:36.132Z,91.40
2017-12-30T13:29:04.478Z,91.20
2017-12-30T13:31:32.119Z,91.20
2017-12-30T13:33:59.805Z,91.40
2017-12-30T13:36:27.459Z,91.00
2017-12-30T13:38:55.043Z,91.10
2017-12-30T13:41:22.661Z,91.00
2017-12-30T13:43:50.454Z,90.90
2017-12-30T13:46:18.130Z,90.80
2017-12-30T13:48:45.745Z,90.70
2017-12-30T13:51:14.129Z,90.80
2017-12-30T13:53:42.535Z,90.70
2017-12-30T13:56:10.238Z,90.70
2017-12-30T13:58:38.691Z,90.60
2017-12-30T14:01:06.469Z,90.60
2017-12-30T14:03:34.891Z,90.10
2017-12-30T14:06:02.624Z,90.10
2017-12-30T14:08:30.495Z,90.30
2017-12-30T14:10:58.127Z,89.40
2017-12-30T14:13:26.547Z,89.40
2017-12-30T14:15:54.240Z,89.40
2017-12-30T14:18:23.309Z,88.40
2017-12-30T14:20:50.982Z,89.20
2017-12-30T14:23:18.661Z,88.50
2017-12-30T14:25:46.369Z,88.40
2017-12-30T14:28:13.968Z,88.40
2017-12-30T14:30:41.544Z,89.30
2017-12-30T14:33:09.272Z,88.40
2017-12-30T14:35:37.882Z,90.10
2017-12-30T14:38:05.524Z,90.10
2017-12-30T14:40:34.003Z,91.70
2017-12-30T14:43:02.443Z,92.00
2017-12-30T14:45:30.071Z,91.90
2017-12-30T14:47:57.722Z,92.60
2017-12-30T14:50:25.327Z,93.30
2017-12-30T14:52:53.042Z,93.50
2017-12-30T14:55:21.668Z,94.40
2017-12-30T14:57:49.306Z,94.40
2017-12-30T15:00:16.955Z,95.00
2017-12-30T15:02:44.626Z,95.40
2017-12-30T15:05:12.264Z,96.30
2017-12-30T15:07:39.941Z,96.30
2017-12-30T15:10:07.524Z,96.50
2017-12-30T15:12:35.164Z,97.10
2017-12-30T15:15:02.771Z,97.00
2017-12-30T15:17:31.207Z,97.40
2017-12-30T15:19:58.820Z,97.40
2017-12-30T15:22:27.225Z,97.70
2017-12-30T15:24:54.962Z,97.70
2017-12-30T15:27:23.394Z,98.00
2017-12-30T15:29:51.135Z,98.00
2017-12-30T15:32:18.906Z,98.30
2017-12-30T15:34:46.620Z,98.20
2017-12-30T15:37:14.224Z,98.10
2017-12-30T15:39:41.932Z,98.50
2017-12-30T15:42:09.549Z,98.70
2017-12-30T15:44:37.994Z,99.00
2017-12-30T15:47:06.067Z,98.80
2017-12-30T15:49:33.710Z,99.10
2017-12-30T15:52:01.315Z,99.20
2017-12-30T15:54:32.437Z,99.40
2017-12-30T15:57:00.119Z,99.40
2017-12-30T15:59:27.739Z,99.70
2017-12-30T16:01:56.108Z,99.90
2017-12-30T16:04:24.546Z,99.90
2017-12-30T16:06:52.154Z,99.90
2017-12-30T16:09:20.569Z,99.90
2017-12-30T16:11:48.265Z,99.90
2017-12-30T16:14:16.537Z,99.90
2017-12-30T16:16:44.202Z,99.90
2017-12-30T16:19:11.845Z,99.90
2017-12-30T16:21:40.324Z,99.90
2017-12-30T16:24:07.961Z,99.90
2017-12-30T16:26:35.585Z,99.90
2017-12-30T16:29:03.181Z,99.90
2017-12-30T16:31:30.936Z,99.90
2017-12-30T16:33:58.642Z,99.90
2017-12-30T16:36:26.425Z,99.90
2017-12-30T16:38:54.163Z,99.90
2017-12-30T16:41:21.858Z,99.90
2017-12-30T16:43:49.483Z,99.90
2017-12-30T16:46:17.189Z,99.90
2017-12-30T16:48:45.556Z,99.90
2017-12-30T16:51:13.198Z,99.90
2017-12-30T16:53:40.875Z,99.90
2017-12-30T16:56:08.565Z,99.90
2017-12-30T16:58:36.943Z,99.90
2017-12-30T17:01:04.578Z,99.90
2017-12-30T17:03:32.261Z,99.90
2017-12-30T17:05:59.930Z,99.90
2017-12-30T17:08:27.633Z,99.90
2017-12-30T17:10:56.117Z,99.90
2017-12-30T17:13:23.767Z,99.90
2017-12-30T17:15:51.365Z,99.90
2017-12-30T17:18:18.999Z,99.90
2017-12-30T17:20:46.644Z,99.90
2017-12-30T17:23:14.529Z,99.90
2017-12-30T17:25:42.115Z,99.90
2017-12-30T17:28:09.836Z,99.90
2017-12-30T17:30:37.497Z,99.90
2017-12-30T17:33:05.143Z,99.90
2017-12-30T17:35:32.836Z,99.90
2017-12-30T17:38:00.500Z,99.90
2017-12-30T17:40:28.158Z,99.90
2017-12-30T17:42:55.953Z,99.90
2017-12-30T17:45:24.459Z,99.90
2017-12-30T17:47:52.925Z,99.90
2017-12-30T17:50:20.702Z,99.90
2017-12-30T17:52:48.381Z,99.90
2017-12-30T17:55:16.836Z,99.90
2017-12-30T17:57:44.441Z,99.90
2017-12-30T18:00:12.894Z,99.90
2017-12-30T18:02:41.409Z,99.90
2017-12-30T18:05:09.851Z,99.90
2017-12-30T18:07:37.573Z,99.90
2017-12-30T18:10:05.271Z,99.90
2017-12-30T18:12:32.968Z,99.90
2017-12-30T18:15:00.663Z,99.90
2017-12-30T18:17:28.383Z,99.90
2017-12-30T18:19:56.261Z,99.90
2017-12-30T18:22:23.948Z,99.90
2017-12-30T18:24:52.352Z,99.90
2017-12-30T18:27:20.810Z,99.90
2017-12-30T18:29:48.484Z,99.90
2017-12-30T18:32:16.258Z,99.90
2017-12-30T18:34:43.906Z,99.90
2017-12-30T18:37:11.574Z,99.90
2017-12-30T18:39:39.259Z,99.90
2017-12-30T18:42:06.930Z,99.90
2017-12-30T18:44:34.670Z,99.90
2017-12-30T18:47:02.345Z,99.90
2017-12-30T18:49:30.483Z,99.90
2017-12-30T18:51:58.194Z,99.90
2017-12-30T18:54:25.794Z,99.90
2017-12-30T18:56:54.240Z,99.90
2017-12-30T18:59:21.954Z,99.90
2017-12-30T19:01:50.484Z,99.90
2017-12-30T19:04:18.269Z,99.90
2017-12-30T19:06:45.897Z,99.90
2017-12-30T19:09:14.398Z,99.90
2017-12-30T19:11:42.057Z,99.90
2017-12-30T19:14:10.529Z,99.90
2017-12-30T19:16:38.223Z,99.90
2017-12-30T19:19:05.894Z,99.90
2017-12-30T19:21:33.616Z,99.90
2017-12-30T19:24:02.052Z,99.90
2017-12-30T19:26:29.752Z,99.90
2017-12-30T19:28:57.553Z,99.90
2017-12-30T19:31:25.240Z,99.90
2017-12-30T19:33:52.960Z,99.90
2017-12-30T19:36:22.727Z,99.90
2017-12-30T19:38:50.426Z,99.90
2017-12-30T19:41:18.119Z,99.90
2017-12-30T19:43:46.577Z,99.90
2017-12-30T19:46:14.382Z,99.90
2017-12-30T19:48:42.836Z,99.90
2017-12-30T19:51:10.520Z,99.90
2017-12-30T19:53:38.207Z,99.90
2017-12-30T19:56:05.941Z,99.90
2017-12-30T19:58:33.656Z,99.90
2017-12-30T20:01:05.705Z,99.90
2017-12-30T20:03:33.436Z,99.90
2017-12-30T20:06:01.146Z,99.90
2017-12-30T20:08:28.873Z,99.90
2017-12-30T20:10:56.538Z,99.90
2017-12-30T20:13:24.237Z,99.90
2017-12-30T20:15:51.958Z,99.90
2017-12-30T20:18:19.713Z,99.90
2017-12-30T20:20:47.453Z,99.90
2017-12-30T20:23:15.154Z,99.90
2017-12-30T20:25:42.837Z,99.90
2017-12-30T20:28:10.530Z,99.90
2017-12-30T20:30:38.692Z,99.90
2017-12-30T20:33:06.469Z,99.90
2017-12-30T20:35:34.160Z,99.90
2017-12-30T20:38:02.181Z,99.90
2017-12-30T20:40:30.422Z,99.90
2017-12-30T20:42:58.156Z,99.90
2017-12-30T20:45:25.862Z,99.90
2017-12-30T20:47:53.521Z,99.90
2017-12-30T20:50:21.200Z,99.90
2017-12-30T20:52:48.908Z,99.90
2017-12-30T20:55:16.590Z,99.90
2017-12-30T20:57:44.259Z,99.90
2017-12-30T21:00:11.940Z,99.90
2017-12-30T21:02:39.621Z,99.90
2017-12-30T21:05:07.295Z,99.90
2017-12-30T21:07:35.017Z,99.90
2017-12-30T21:10:03.052Z,99.90
2017-12-30T21:12:31.553Z,99.90
2017-12-30T21:14:59.965Z,99.90
2017-12-30T21:17:27.611Z,99.90
2017-12-30T21:19:56.085Z,99.90
2017-12-30T21:22:24.871Z,99.90
2017-12-30T21:24:52.553Z,99.90
2017-12-30T21:27:20.253Z,99.90
2017-12-30T21:29:47.949Z,99.90
2017-12-30T21:32:15.589Z,99.90
2017-12-30T21:34:43.250Z,99.90
2017-12-30T21:37:10.967Z,99.90
2017-12-30T21:39:38.654Z,99.90
2017-12-30T21:42:07.152Z,99.90
2017-12-30T21:44:34.833Z,99.90
2017-12-30T21:47:02.532Z,99.90
2017-12-30T21:49:30.186Z,99.80
2017-12-30T21:51:57.913Z,99.80
2017-12-30T21:54:25.634Z,99.80
2017-12-30T21:56:53.320Z,99.80
2017-12-30T21:59:20.976Z,99.70
2017-12-30T22:01:48.657Z,99.50
2017-12-30T22:04:16.383Z,99.50
2017-12-30T22:06:44.114Z,99.40
2017-12-30T22:09:11.863Z,99.30
2017-12-30T22:11:39.533Z,99.10
2017-12-30T22:14:07.219Z,99.20
2017-12-30T22:16:36.448Z,99.20
2017-12-30T22:19:04.200Z,99.20
2017-12-30T22:21:32.626Z,99.00
2017-12-30T22:24:00.609Z,99.00
2017-12-30T22:26:29.421Z,99.30
2017-12-30T22:28:57.928Z,99.00
2017-12-30T22:31:26.338Z,98.70
2017-12-30T22:33:54.031Z,98.70
2017-12-30T22:36:21.695Z,98.70
2017-12-30T22:38:49.420Z,98.80
2017-12-30T22:41:17.865Z,98.80
2017-12-30T22:43:45.509Z,98.80
2017-12-30T22:46:13.213Z,98.90
2017-12-30T22:48:40.900Z,98.90
2017-12-30T22:51:09.404Z,99.00
2017-12-30T22:53:37.073Z,98.90
2017-12-30T22:56:04.760Z,98.60
2017-12-30T22:58:32.462Z,98.30
2017-12-30T23:01:05.796Z,98.10
2017-12-30T23:03:34.239Z,97.10
2017-12-30T23:06:01.916Z,97.10
2017-12-30T23:08:29.602Z,96.90
2017-12-30T23:10:58.037Z,96.90
2017-12-30T23:13:25.706Z,96.90
2017-12-30T23:15:53.392Z,96.60
2017-12-30T23:18:21.063Z,96.90
2017-12-30T23:20:48.731Z,97.10
2017-12-30T23:23:16.427Z,96.90
2017-12-30T23:25:44.849Z,96.50
2017-12-30T23:28:13.303Z,96.40
2017-12-30T23:30:41.744Z,96.40
2017-12-30T23:33:09.442Z,96.40
2017-12-30T23:35:37.860Z,96.00
2017-12-30T23:38:05.575Z,96.00
2017-12-30T23:40:34.351Z,95.80
2017-12-30T23:43:01.993Z,95.10
2017-12-30T23:45:29.669Z,94.50
2017-12-30T23:47:57.353Z,94.90
2017-12-30T23:50:25.046Z,94.40
2017-12-30T23:52:52.692Z,94.80
2017-12-30T23:55:20.358Z,94.60
2017-12-30T23:57:48.838Z,94.40
